sensor_id;sensor_type;location;lat;lon;timestamp;pressure;altitude;pressure_sealevel;temperature;humidity
49627;BME280;35527;54.616;39.786;2022-08-06T00:00:16;100387.81;;;21.26;100.00
49627;BME280;35527;54.616;39.786;2022-08-06T00:03:19;100380.25;;;21.10;100.00
49627;BME280;35527;54.616;39.786;2022-08-06T00:06:23;100385.84;;;21.05;100.00
49627;BME280;35527;54.616;39.786;2022-08-06T00:09:26;100403.56;;;21.03;100.00
49627;BME280;35527;54.616;39.786;2022-08-06T00:12:34;100353.09;;;20.61;100.00
49627;BME280;35527;54.616;39.786;2022-08-06T00:15:37;100407.06;;;20.91;100.00
49627;BME280;35527;54.616;39.786;2022-08-06T00:18:40;100391.34;;;20.78;100.00
49627;BME280;35527;54.616;39.786;2022-08-06T00:21:43;100397.53;;;20.77;100.00
49627;BME280;35527;54.616;39.786;2022-08-06T00:25:12;100395.13;;;20.74;100.00
49627;BME280;35527;54.616;39.786;2022-08-06T00:28:16;100413.97;;;20.81;100.00
49627;BME280;35527;54.616;39.786;2022-08-06T00:31:19;100388.41;;;20.70;100.00
49627;BME280;35527;54.616;39.786;2022-08-06T00:34:24;100415.53;;;20.83;100.00
49627;BME280;35527;54.616;39.786;2022-08-06T00:37:31;100414.78;;;20.81;100.00
49627;BME280;35527;54.616;39.786;2022-08-06T00:40:37;100398.31;;;20.66;100.00
49627;BME280;35527;54.616;39.786;2022-08-06T00:43:41;100414.22;;;20.65;100.00
49627;BME280;35527;54.616;39.786;2022-08-06T00:46:44;100402.56;;;20.43;100.00
49627;BME280;35527;54.616;39.786;2022-08-06T00:49:50;100396.78;;;20.38;100.00
49627;BME280;35527;54.616;39.786;2022-08-06T00:52:53;100427.69;;;20.47;100.00
49627;BME280;35527;54.616;39.786;2022-08-06T00:55:56;100424.97;;;20.36;100.00
49627;BME280;35527;54.616;39.786;2022-08-06T00:59:00;100415.63;;;20.19;100.00
49627;BME280;35527;54.616;39.786;2022-08-06T01:02:04;100404.19;;;20.20;100.00
49627;BME280;35527;54.616;39.786;2022-08-06T01:05:06;100418.56;;;20.28;100.00
49627;BME280;35527;54.616;39.786;2022-08-06T01:08:11;100407.53;;;20.22;100.00
49627;BME280;35527;54.616;39.786;2022-08-06T01:11:16;100415.94;;;20.28;100.00
49627;BME280;35527;54.616;39.786;2022-08-06T01:14:23;100424.03;;;20.24;100.00
49627;BME280;35527;54.616;39.786;2022-08-06T01:20:51;100426.66;;;20.24;100.00
49627;BME280;35527;54.616;39.786;2022-08-06T01:28:16;100426.66;;;20.24;100.00
49627;BME280;35527;54.616;39.786;2022-08-06T01:31:29;100434.34;;;20.28;100.00
49627;BME280;35527;54.616;39.786;2022-08-06T01:34:39;100405.03;;;20.21;100.00
49627;BME280;35527;54.616;39.786;2022-08-06T01:38:10;100436.53;;;20.34;100.00
49627;BME280;35527;54.616;39.786;2022-08-06T01:41:19;100436.00;;;20.29;100.00
49627;BME280;35527;54.616;39.786;2022-08-06T01:44:43;100423.63;;;20.18;100.00
49627;BME280;35527;54.616;39.786;2022-08-06T01:47:53;100427.19;;;20.17;100.00
49627;BME280;35527;54.616;39.786;2022-08-06T01:51:03;100431.81;;;20.13;100.00
49627;BME280;35527;54.616;39.786;2022-08-06T01:54:09;100455.69;;;20.23;100.00
49627;BME280;35527;54.616;39.786;2022-08-06T01:57:17;100454.22;;;20.19;100.00
49627;BME280;35527;54.616;39.786;2022-08-06T02:00:23;100446.34;;;20.19;100.00
49627;BME280;35527;54.616;39.786;2022-08-06T02:03:33;100444.66;;;20.18;100.00
49627;BME280;35527;54.616;39.786;2022-08-06T02:07:03;100446.94;;;20.22;100.00
49627;BME280;35527;54.616;39.786;2022-08-06T02:10:11;100447.38;;;20.16;100.00
49627;BME280;35527;54.616;39.786;2022-08-06T02:13:17;100434.25;;;20.16;100.00
49627;BME280;35527;54.616;39.786;2022-08-06T02:16:23;100438.75;;;20.14;100.00
49627;BME280;35527;54.616;39.786;2022-08-06T02:19:28;100446.75;;;20.25;100.00
49627;BME280;35527;54.616;39.786;2022-08-06T02:22:38;100417.19;;;20.22;100.00
49627;BME280;35527;54.616;39.786;2022-08-06T02:25:45;100446.53;;;20.41;100.00
49627;BME280;35527;54.616;39.786;2022-08-06T02:28:51;100418.75;;;20.37;100.00
49627;BME280;35527;54.616;39.786;2022-08-06T02:31:58;100437.78;;;20.54;100.00
49627;BME280;35527;54.616;39.786;2022-08-06T02:35:01;100423.72;;;20.55;100.00
49627;BME280;35527;54.616;39.786;2022-08-06T02:38:09;100414.75;;;20.57;100.00
49627;BME280;35527;54.616;39.786;2022-08-06T02:41:21;100442.78;;;20.82;100.00
49627;BME280;35527;54.616;39.786;2022-08-06T02:44:38;100433.06;;;20.96;100.00
49627;BME280;35527;54.616;39.786;2022-08-06T02:50:53;100438.31;;;21.20;100.00
49627;BME280;35527;54.616;39.786;2022-08-06T02:54:09;100446.38;;;21.29;100.00
49627;BME280;35527;54.616;39.786;2022-08-06T02:57:34;100441.06;;;21.42;100.00
49627;BME280;35527;54.616;39.786;2022-08-06T03:00:41;100425.88;;;21.46;100.00
49627;BME280;35527;54.616;39.786;2022-08-06T03:03:46;100442.72;;;21.67;100.00
49627;BME280;35527;54.616;39.786;2022-08-06T03:06:51;100442.16;;;21.75;100.00
49627;BME280;35527;54.616;39.786;2022-08-06T03:09:58;100431.22;;;21.68;100.00
49627;BME280;35527;54.616;39.786;2022-08-06T03:13:02;100450.19;;;21.85;100.00
49627;BME280;35527;54.616;39.786;2022-08-06T03:16:07;100423.69;;;21.75;100.00
49627;BME280;35527;54.616;39.786;2022-08-06T03:19:12;100439.03;;;21.81;100.00
49627;BME280;35527;54.616;39.786;2022-08-06T03:22:18;100432.22;;;21.78;100.00
49627;BME280;35527;54.616;39.786;2022-08-06T03:25:21;100420.97;;;21.88;100.00
49627;BME280;35527;54.616;39.786;2022-08-06T03:28:24;100449.06;;;22.45;100.00
49627;BME280;35527;54.616;39.786;2022-08-06T03:31:30;100450.41;;;23.16;96.76
49627;BME280;35527;54.616;39.786;2022-08-06T03:34:37;100445.66;;;23.85;89.66
49627;BME280;35527;54.616;39.786;2022-08-06T03:37:48;100442.25;;;23.73;85.84
49627;BME280;35527;54.616;39.786;2022-08-06T03:40:57;100431.44;;;23.11;88.67
49627;BME280;35527;54.616;39.786;2022-08-06T03:44:03;100437.63;;;23.01;90.17
49627;BME280;35527;54.616;39.786;2022-08-06T03:47:23;100421.66;;;22.80;90.68
49627;BME280;35527;54.616;39.786;2022-08-06T03:50:33;100447.06;;;22.92;91.80
49627;BME280;35527;54.616;39.786;2022-08-06T03:53:39;100428.34;;;23.06;89.74
49627;BME280;35527;54.616;39.786;2022-08-06T03:56:44;100429.63;;;23.12;89.28
49627;BME280;35527;54.616;39.786;2022-08-06T03:59:53;100444.19;;;24.22;85.33
49627;BME280;35527;54.616;39.786;2022-08-06T04:03:02;100436.38;;;25.02;78.25
49627;BME280;35527;54.616;39.786;2022-08-06T04:06:07;100439.81;;;24.83;81.37
49627;BME280;35527;54.616;39.786;2022-08-06T04:09:13;100450.34;;;24.54;82.69
49627;BME280;35527;54.616;39.786;2022-08-06T04:12:19;100444.59;;;24.48;84.86
49627;BME280;35527;54.616;39.786;2022-08-06T04:15:27;100430.59;;;24.37;85.35
49627;BME280;35527;54.616;39.786;2022-08-06T04:18:33;100435.00;;;24.47;86.19
49627;BME280;35527;54.616;39.786;2022-08-06T04:22:04;100445.22;;;24.41;86.32
49627;BME280;35527;54.616;39.786;2022-08-06T04:25:10;100449.56;;;24.82;85.25
49627;BME280;35527;54.616;39.786;2022-08-06T04:28:15;100449.63;;;26.91;71.11
49627;BME280;35527;54.616;39.786;2022-08-06T04:31:20;100453.91;;;28.34;60.50
49627;BME280;35527;54.616;39.786;2022-08-06T04:34:26;100443.91;;;28.28;57.30
49627;BME280;35527;54.616;39.786;2022-08-06T04:37:37;100459.63;;;27.87;58.00
49627;BME280;35527;54.616;39.786;2022-08-06T04:40:44;100451.31;;;29.01;55.13
49627;BME280;35527;54.616;39.786;2022-08-06T04:43:48;100448.50;;;30.09;50.64
49627;BME280;35527;54.616;39.786;2022-08-06T04:46:51;100456.88;;;29.90;50.29
49627;BME280;35527;54.616;39.786;2022-08-06T04:49:56;100455.06;;;29.16;51.77
49627;BME280;35527;54.616;39.786;2022-08-06T04:53:09;100468.75;;;30.51;48.19
49627;BME280;35527;54.616;39.786;2022-08-06T04:56:12;100456.25;;;30.83;46.51
49627;BME280;35527;54.616;39.786;2022-08-06T04:59:17;100472.88;;;31.85;42.85
49627;BME280;35527;54.616;39.786;2022-08-06T05:02:21;100472.38;;;30.97;43.67
49627;BME280;35527;54.616;39.786;2022-08-06T05:05:24;100467.75;;;29.63;47.73
49627;BME280;35527;54.616;39.786;2022-08-06T05:08:29;100450.19;;;30.89;44.35
49627;BME280;35527;54.616;39.786;2022-08-06T05:11:41;100470.69;;;32.18;41.90
49627;BME280;35527;54.616;39.786;2022-08-06T05:15:15;100459.19;;;33.98;38.75
49627;BME280;35527;54.616;39.786;2022-08-06T05:18:25;100470.25;;;35.12;35.41
49627;BME280;35527;54.616;39.786;2022-08-06T05:21:33;100453.28;;;35.12;35.21
49627;BME280;35527;54.616;39.786;2022-08-06T05:24:40;100459.78;;;34.63;36.03
49627;BME280;35527;54.616;39.786;2022-08-06T05:27:46;100433.84;;;34.07;36.13
49627;BME280;35527;54.616;39.786;2022-08-06T05:30:50;100437.69;;;33.63;37.30
49627;BME280;35527;54.616;39.786;2022-08-06T05:33:54;100432.00;;;33.79;37.36
49627;BME280;35527;54.616;39.786;2022-08-06T05:36:59;100433.69;;;33.87;37.03
49627;BME280;35527;54.616;39.786;2022-08-06T05:40:04;100423.03;;;34.42;36.46
49627;BME280;35527;54.616;39.786;2022-08-06T05:43:08;100425.47;;;34.23;37.05
49627;BME280;35527;54.616;39.786;2022-08-06T05:46:18;100435.47;;;35.51;34.52
49627;BME280;35527;54.616;39.786;2022-08-06T05:52:53;100426.56;;;35.50;34.71
49627;BME280;35527;54.616;39.786;2022-08-06T05:56:04;100445.66;;;36.92;33.46
49627;BME280;35527;54.616;39.786;2022-08-06T05:59:25;100446.56;;;38.60;31.02
49627;BME280;35527;54.616;39.786;2022-08-06T06:02:30;100433.16;;;38.53;29.83
49627;BME280;35527;54.616;39.786;2022-08-06T06:05:36;100435.66;;;37.74;31.04
49627;BME280;35527;54.616;39.786;2022-08-06T06:08:41;100436.84;;;38.40;30.64
49627;BME280;35527;54.616;39.786;2022-08-06T06:11:46;100453.03;;;38.59;29.97
49627;BME280;35527;54.616;39.786;2022-08-06T06:14:54;100450.69;;;38.62;30.36
49627;BME280;35527;54.616;39.786;2022-08-06T06:18:08;100444.75;;;39.14;29.33
49627;BME280;35527;54.616;39.786;2022-08-06T06:25:14;100448.84;;;39.82;28.91
49627;BME280;35527;54.616;39.786;2022-08-06T06:32:32;100437.06;;;38.69;29.87
49627;BME280;35527;54.616;39.786;2022-08-06T06:35:52;100443.66;;;37.87;31.32
49627;BME280;35527;54.616;39.786;2022-08-06T06:42:19;100432.00;;;38.91;30.13
49627;BME280;35527;54.616;39.786;2022-08-06T06:45:35;100415.31;;;38.64;29.67
49627;BME280;35527;54.616;39.786;2022-08-06T06:48:49;100430.53;;;38.09;30.73
49627;BME280;35527;54.616;39.786;2022-08-06T06:52:05;100418.63;;;37.55;31.63
49627;BME280;35527;54.616;39.786;2022-08-06T06:55:19;100419.06;;;37.52;31.93
49627;BME280;35527;54.616;39.786;2022-08-06T06:58:24;100420.94;;;36.95;32.90
49627;BME280;35527;54.616;39.786;2022-08-06T07:01:31;100404.72;;;37.27;32.45
49627;BME280;35527;54.616;39.786;2022-08-06T07:04:36;100415.63;;;37.13;33.10
49627;BME280;35527;54.616;39.786;2022-08-06T07:07:42;100433.41;;;37.71;31.15
49627;BME280;35527;54.616;39.786;2022-08-06T07:10:51;100420.50;;;36.66;32.38
49627;BME280;35527;54.616;39.786;2022-08-06T07:13:57;100423.94;;;36.35;33.42
49627;BME280;35527;54.616;39.786;2022-08-06T07:17:04;100417.00;;;36.07;33.41
49627;BME280;35527;54.616;39.786;2022-08-06T07:20:10;100391.53;;;36.42;32.55
49627;BME280;35527;54.616;39.786;2022-08-06T07:23:14;100409.34;;;37.19;31.55
49627;BME280;35527;54.616;39.786;2022-08-06T07:26:23;100413.88;;;36.94;31.91
49627;BME280;35527;54.616;39.786;2022-08-06T07:29:26;100432.75;;;37.26;31.68
49627;BME280;35527;54.616;39.786;2022-08-06T07:32:31;100434.03;;;37.92;30.17
49627;BME280;35527;54.616;39.786;2022-08-06T07:35:39;100414.75;;;38.25;30.66
49627;BME280;35527;54.616;39.786;2022-08-06T07:38:44;100397.44;;;38.74;29.48
49627;BME280;35527;54.616;39.786;2022-08-06T07:41:51;100422.94;;;38.55;28.71
49627;BME280;35527;54.616;39.786;2022-08-06T07:45:01;100420.63;;;37.60;29.92
49627;BME280;35527;54.616;39.786;2022-08-06T07:48:09;100410.41;;;37.43;30.49
49627;BME280;35527;54.616;39.786;2022-08-06T07:51:13;100410.59;;;36.92;31.70
49627;BME280;35527;54.616;39.786;2022-08-06T07:54:21;100412.88;;;37.20;31.08
49627;BME280;35527;54.616;39.786;2022-08-06T07:57:30;100397.53;;;37.39;29.94
49627;BME280;35527;54.616;39.786;2022-08-06T08:00:37;100396.06;;;37.18;30.56
49627;BME280;35527;54.616;39.786;2022-08-06T08:03:46;100404.13;;;37.50;30.71
49627;BME280;35527;54.616;39.786;2022-08-06T08:07:11;100407.16;;;38.34;30.10
49627;BME280;35527;54.616;39.786;2022-08-06T08:10:17;100396.94;;;38.36;29.69
49627;BME280;35527;54.616;39.786;2022-08-06T08:13:22;100394.97;;;38.73;28.23
49627;BME280;35527;54.616;39.786;2022-08-06T08:16:31;100404.09;;;38.12;29.05
49627;BME280;35527;54.616;39.786;2022-08-06T08:19:39;100403.97;;;37.63;28.63
49627;BME280;35527;54.616;39.786;2022-08-06T08:22:44;100403.63;;;37.09;30.09
49627;BME280;35527;54.616;39.786;2022-08-06T08:25:47;100390.25;;;37.83;29.14
49627;BME280;35527;54.616;39.786;2022-08-06T08:28:52;100374.88;;;37.40;29.32
49627;BME280;35527;54.616;39.786;2022-08-06T08:31:55;100396.72;;;36.82;29.27
49627;BME280;35527;54.616;39.786;2022-08-06T08:34:59;100368.06;;;37.37;29.43
49627;BME280;35527;54.616;39.786;2022-08-06T08:38:02;100367.44;;;38.76;27.44
49627;BME280;35527;54.616;39.786;2022-08-06T08:41:14;100380.16;;;38.45;27.44
49627;BME280;35527;54.616;39.786;2022-08-06T08:44:23;100388.63;;;37.38;28.46
49627;BME280;35527;54.616;39.786;2022-08-06T08:47:33;100373.03;;;37.15;28.45
49627;BME280;35527;54.616;39.786;2022-08-06T08:50:40;100363.16;;;37.28;28.82
49627;BME280;35527;54.616;39.786;2022-08-06T08:53:48;100377.88;;;37.75;27.32
49627;BME280;35527;54.616;39.786;2022-08-06T08:56:57;100384.69;;;37.34;27.65
49627;BME280;35527;54.616;39.786;2022-08-06T09:00:05;100358.81;;;37.27;28.41
49627;BME280;35527;54.616;39.786;2022-08-06T09:03:10;100365.22;;;36.75;28.79
49627;BME280;35527;54.616;39.786;2022-08-06T09:06:17;100379.22;;;36.66;29.10
49627;BME280;35527;54.616;39.786;2022-08-06T09:09:23;100362.09;;;37.54;28.38
49627;BME280;35527;54.616;39.786;2022-08-06T09:12:26;100377.19;;;37.61;27.98
49627;BME280;35527;54.616;39.786;2022-08-06T09:15:29;100350.72;;;38.07;27.45
49627;BME280;35527;54.616;39.786;2022-08-06T09:18:34;100377.03;;;37.31;27.87
49627;BME280;35527;54.616;39.786;2022-08-06T09:21:39;100379.09;;;36.79;29.11
49627;BME280;35527;54.616;39.786;2022-08-06T09:24:45;100380.88;;;36.15;29.78
49627;BME280;35527;54.616;39.786;2022-08-06T09:27:47;100360.78;;;36.11;29.55
49627;BME280;35527;54.616;39.786;2022-08-06T09:31:02;100351.03;;;36.48;29.99
49627;BME280;35527;54.616;39.786;2022-08-06T09:34:06;100370.00;;;37.30;28.58
49627;BME280;35527;54.616;39.786;2022-08-06T09:37:10;100348.66;;;37.47;27.56
49627;BME280;35527;54.616;39.786;2022-08-06T09:40:17;100345.66;;;36.10;29.35
49627;BME280;35527;54.616;39.786;2022-08-06T09:43:26;100339.16;;;36.63;29.37
49627;BME280;35527;54.616;39.786;2022-08-06T09:46:42;100340.50;;;36.47;29.93
49627;BME280;35527;54.616;39.786;2022-08-06T09:49:46;100346.22;;;37.39;28.81
49627;BME280;35527;54.616;39.786;2022-08-06T09:53:01;100355.44;;;36.04;29.48
49627;BME280;35527;54.616;39.786;2022-08-06T09:56:15;100348.09;;;34.80;31.41
49627;BME280;35527;54.616;39.786;2022-08-06T09:59:20;100348.50;;;34.77;31.86
49627;BME280;35527;54.616;39.786;2022-08-06T10:02:23;100353.28;;;35.28;31.15
49627;BME280;35527;54.616;39.786;2022-08-06T10:05:28;100327.72;;;35.84;30.90
49627;BME280;35527;54.616;39.786;2022-08-06T10:08:33;100349.56;;;36.59;29.74
49627;BME280;35527;54.616;39.786;2022-08-06T10:11:40;100335.09;;;36.47;29.03
49627;BME280;35527;54.616;39.786;2022-08-06T10:14:43;100335.31;;;35.94;29.64
49627;BME280;35527;54.616;39.786;2022-08-06T10:17:46;100340.19;;;35.72;29.02
49627;BME280;35527;54.616;39.786;2022-08-06T10:21:06;100327.41;;;35.14;29.19
49627;BME280;35527;54.616;39.786;2022-08-06T10:24:11;100337.94;;;34.69;30.24
49627;BME280;35527;54.616;39.786;2022-08-06T10:27:23;100332.56;;;34.07;31.76
49627;BME280;35527;54.616;39.786;2022-08-06T10:30:28;100331.47;;;34.43;31.25
49627;BME280;35527;54.616;39.786;2022-08-06T10:33:57;100321.13;;;33.92;31.41
49627;BME280;35527;54.616;39.786;2022-08-06T10:37:04;100321.59;;;33.05;32.80
49627;BME280;35527;54.616;39.786;2022-08-06T10:40:33;100318.66;;;32.42;34.45
49627;BME280;35527;54.616;39.786;2022-08-06T10:43:39;100315.97;;;32.78;34.49
49627;BME280;35527;54.616;39.786;2022-08-06T10:46:42;100301.28;;;33.86;32.33
49627;BME280;35527;54.616;39.786;2022-08-06T10:49:48;100314.22;;;34.24;32.03
49627;BME280;35527;54.616;39.786;2022-08-06T10:52:52;100314.16;;;34.92;30.83
49627;BME280;35527;54.616;39.786;2022-08-06T10:55:55;100314.13;;;34.59;30.45
49627;BME280;35527;54.616;39.786;2022-08-06T10:59:00;100305.66;;;35.22;30.31
49627;BME280;35527;54.616;39.786;2022-08-06T11:02:32;100296.34;;;36.41;28.94
49627;BME280;35527;54.616;39.786;2022-08-06T11:05:37;100291.72;;;36.55;28.62
49627;BME280;35527;54.616;39.786;2022-08-06T11:12:23;100291.38;;;36.06;29.55
49627;BME280;35527;54.616;39.786;2022-08-06T11:15:35;100276.91;;;34.69;31.09
49627;BME280;35527;54.616;39.786;2022-08-06T11:19:08;100295.31;;;34.72;31.37
49627;BME280;35527;54.616;39.786;2022-08-06T11:25:41;100284.75;;;35.96;29.73
49627;BME280;35527;54.616;39.786;2022-08-06T11:31:54;100278.28;;;36.10;30.17
49627;BME280;35527;54.616;39.786;2022-08-06T11:34:56;100295.97;;;36.31;30.31
49627;BME280;35527;54.616;39.786;2022-08-06T11:38:04;100279.72;;;35.48;31.90
49627;BME280;35527;54.616;39.786;2022-08-06T11:41:36;100276.25;;;35.27;32.28
49627;BME280;35527;54.616;39.786;2022-08-06T11:45:01;100288.91;;;34.93;32.75
49627;BME280;35527;54.616;39.786;2022-08-06T11:48:07;100286.81;;;34.56;32.73
49627;BME280;35527;54.616;39.786;2022-08-06T11:51:39;100294.78;;;34.16;32.56
49627;BME280;35527;54.616;39.786;2022-08-06T11:57:48;100274.91;;;33.62;33.84
49627;BME280;35527;54.616;39.786;2022-08-06T12:00:59;100262.41;;;33.41;34.04
49627;BME280;35527;54.616;39.786;2022-08-06T12:04:03;100271.56;;;33.53;33.75
49627;BME280;35527;54.616;39.786;2022-08-06T12:07:23;100277.63;;;34.10;33.21
49627;BME280;35527;54.616;39.786;2022-08-06T12:10:26;100268.19;;;34.41;32.22
49627;BME280;35527;54.616;39.786;2022-08-06T12:13:39;100261.31;;;34.18;33.24
49627;BME280;35527;54.616;39.786;2022-08-06T12:16:42;100221.47;;;33.32;34.25
49627;BME280;35527;54.616;39.786;2022-08-06T12:19:47;100233.53;;;33.08;35.33
49627;BME280;35527;54.616;39.786;2022-08-06T12:22:50;100256.63;;;32.60;36.02
49627;BME280;35527;54.616;39.786;2022-08-06T12:25:56;100262.47;;;32.05;39.05
49627;BME280;35527;54.616;39.786;2022-08-06T12:29:01;100245.59;;;31.31;40.85
49627;BME280;35527;54.616;39.786;2022-08-06T12:32:33;100261.81;;;30.77;42.22
49627;BME280;35527;54.616;39.786;2022-08-06T12:38:56;100232.34;;;30.62;43.53
49627;BME280;35527;54.616;39.786;2022-08-06T12:42:00;100240.28;;;30.55;43.51
49627;BME280;35527;54.616;39.786;2022-08-06T12:45:03;100239.81;;;30.51;42.98
49627;BME280;35527;54.616;39.786;2022-08-06T12:48:08;100234.00;;;30.48;43.03
49627;BME280;35527;54.616;39.786;2022-08-06T12:51:16;100220.03;;;30.38;42.69
49627;BME280;35527;54.616;39.786;2022-08-06T12:54:28;100236.72;;;30.40;43.50
49627;BME280;35527;54.616;39.786;2022-08-06T12:57:31;100233.66;;;30.28;43.50
49627;BME280;35527;54.616;39.786;2022-08-06T13:00:37;100233.44;;;30.29;44.70
49627;BME280;35527;54.616;39.786;2022-08-06T13:03:49;100249.88;;;30.41;44.74
49627;BME280;35527;54.616;39.786;2022-08-06T13:06:55;100218.97;;;30.24;45.59
49627;BME280;35527;54.616;39.786;2022-08-06T13:09:58;100211.16;;;30.14;46.80
49627;BME280;35527;54.616;39.786;2022-08-06T13:13:18;100219.47;;;29.96;48.26
49627;BME280;35527;54.616;39.786;2022-08-06T13:16:23;100226.84;;;29.86;49.03
49627;BME280;35527;54.616;39.786;2022-08-06T13:19:26;100199.53;;;29.36;51.64
49627;BME280;35527;54.616;39.786;2022-08-06T13:22:30;100214.50;;;29.46;50.81
49627;BME280;35527;54.616;39.786;2022-08-06T13:25:46;100222.78;;;29.59;49.67
49627;BME280;35527;54.616;39.786;2022-08-06T13:32:24;100210.38;;;29.82;48.20
49627;BME280;35527;54.616;39.786;2022-08-06T13:35:30;100224.72;;;30.04;47.67
49627;BME280;35527;54.616;39.786;2022-08-06T13:38:34;100226.00;;;30.25;48.10
49627;BME280;35527;54.616;39.786;2022-08-06T13:41:38;100215.97;;;30.19;47.65
49627;BME280;35527;54.616;39.786;2022-08-06T13:44:44;100204.66;;;30.17;47.55
49627;BME280;35527;54.616;39.786;2022-08-06T13:47:50;100219.84;;;30.16;46.98
49627;BME280;35527;54.616;39.786;2022-08-06T13:50:54;100228.31;;;30.20;47.21
49627;BME280;35527;54.616;39.786;2022-08-06T13:54:00;100225.03;;;30.41;45.96
49627;BME280;35527;54.616;39.786;2022-08-06T13:57:04;100243.34;;;30.67;45.64
49627;BME280;35527;54.616;39.786;2022-08-06T14:00:07;100260.97;;;30.30;44.72
49627;BME280;35527;54.616;39.786;2022-08-06T14:03:10;100268.16;;;29.98;46.57
49627;BME280;35527;54.616;39.786;2022-08-06T14:06:15;100274.06;;;29.85;45.41
49627;BME280;35527;54.616;39.786;2022-08-06T14:09:19;100285.00;;;29.68;45.79
49627;BME280;35527;54.616;39.786;2022-08-06T14:12:22;100268.47;;;29.56;45.99
49627;BME280;35527;54.616;39.786;2022-08-06T14:15:27;100237.00;;;29.51;45.73
49627;BME280;35527;54.616;39.786;2022-08-06T14:18:32;100253.19;;;29.89;45.13
49627;BME280;35527;54.616;39.786;2022-08-06T14:21:38;100253.09;;;30.05;44.40
49627;BME280;35527;54.616;39.786;2022-08-06T14:24:42;100234.34;;;29.91;44.37
49627;BME280;35527;54.616;39.786;2022-08-06T14:27:45;100241.72;;;29.80;45.96
49627;BME280;35527;54.616;39.786;2022-08-06T14:30:50;100254.13;;;29.73;46.00
49627;BME280;35527;54.616;39.786;2022-08-06T14:33:56;100241.75;;;29.72;46.24
49627;BME280;35527;54.616;39.786;2022-08-06T14:37:02;100244.31;;;29.66;46.56
49627;BME280;35527;54.616;39.786;2022-08-06T14:40:06;100232.34;;;29.45;46.60
49627;BME280;35527;54.616;39.786;2022-08-06T14:43:12;100235.63;;;29.55;45.72
49627;BME280;35527;54.616;39.786;2022-08-06T14:46:33;100228.75;;;29.69;45.01
49627;BME280;35527;54.616;39.786;2022-08-06T14:49:37;100225.72;;;29.80;44.52
49627;BME280;35527;54.616;39.786;2022-08-06T14:52:45;100231.38;;;29.85;44.26
49627;BME280;35527;54.616;39.786;2022-08-06T14:55:51;100233.56;;;29.82;44.61
49627;BME280;35527;54.616;39.786;2022-08-06T14:58:54;100221.28;;;29.64;44.67
49627;BME280;35527;54.616;39.786;2022-08-06T15:01:57;100217.66;;;29.49;44.84
49627;BME280;35527;54.616;39.786;2022-08-06T15:05:03;100219.03;;;29.37;45.35
49627;BME280;35527;54.616;39.786;2022-08-06T15:08:08;100181.06;;;29.27;45.55
49627;BME280;35527;54.616;39.786;2022-08-06T15:11:12;100219.50;;;29.49;44.71
49627;BME280;35527;54.616;39.786;2022-08-06T15:14:14;100219.84;;;29.46;45.00
49627;BME280;35527;54.616;39.786;2022-08-06T15:17:20;100220.78;;;29.53;44.93
49627;BME280;35527;54.616;39.786;2022-08-06T15:20:24;100200.00;;;29.48;44.40
49627;BME280;35527;54.616;39.786;2022-08-06T15:23:28;100232.47;;;29.52;45.21
49627;BME280;35527;54.616;39.786;2022-08-06T15:26:31;100230.66;;;29.44;45.12
49627;BME280;35527;54.616;39.786;2022-08-06T15:29:35;100226.84;;;29.38;44.92
49627;BME280;35527;54.616;39.786;2022-08-06T15:32:39;100212.91;;;29.20;44.98
49627;BME280;35527;54.616;39.786;2022-08-06T15:35:43;100237.25;;;29.25;46.21
49627;BME280;35527;54.616;39.786;2022-08-06T15:38:51;100228.44;;;29.16;46.39
49627;BME280;35527;54.616;39.786;2022-08-06T15:41:56;100230.09;;;29.09;46.66
49627;BME280;35527;54.616;39.786;2022-08-06T15:45:00;100205.13;;;28.86;47.01
49627;BME280;35527;54.616;39.786;2022-08-06T15:48:04;100219.81;;;28.82;47.71
49627;BME280;35527;54.616;39.786;2022-08-06T15:51:10;100220.63;;;28.82;48.08
49627;BME280;35527;54.616;39.786;2022-08-06T15:54:19;100208.81;;;28.77;47.95
49627;BME280;35527;54.616;39.786;2022-08-06T15:57:28;100195.66;;;28.59;48.15
49627;BME280;35527;54.616;39.786;2022-08-06T16:00:33;100169.69;;;28.36;47.41
49627;BME280;35527;54.616;39.786;2022-08-06T16:03:36;100205.00;;;28.55;47.70
49627;BME280;35527;54.616;39.786;2022-08-06T16:06:38;100208.66;;;28.54;48.25
49627;BME280;35527;54.616;39.786;2022-08-06T16:09:42;100206.16;;;28.44;48.35
49627;BME280;35527;54.616;39.786;2022-08-06T16:12:47;100206.28;;;28.26;48.96
49627;BME280;35527;54.616;39.786;2022-08-06T16:15:51;100206.94;;;28.20;49.68
49627;BME280;35527;54.616;39.786;2022-08-06T16:18:55;100199.28;;;28.08;48.40
49627;BME280;35527;54.616;39.786;2022-08-06T16:22:00;100211.91;;;28.06;48.53
49627;BME280;35527;54.616;39.786;2022-08-06T16:25:04;100204.56;;;27.92;49.64
49627;BME280;35527;54.616;39.786;2022-08-06T16:28:10;100199.19;;;27.76;50.92
49627;BME280;35527;54.616;39.786;2022-08-06T16:31:14;100200.81;;;27.69;51.48
49627;BME280;35527;54.616;39.786;2022-08-06T16:34:19;100194.44;;;27.53;52.98
49627;BME280;35527;54.616;39.786;2022-08-06T16:37:22;100200.22;;;27.49;53.40
49627;BME280;35527;54.616;39.786;2022-08-06T16:40:25;100170.56;;;27.27;53.65
49627;BME280;35527;54.616;39.786;2022-08-06T16:43:32;100177.09;;;27.15;54.09
49627;BME280;35527;54.616;39.786;2022-08-06T16:46:34;100175.59;;;27.12;53.94
49627;BME280;35527;54.616;39.786;2022-08-06T16:49:39;100180.41;;;27.09;54.48